Time;durP1;ratioP1;P1;durP2;ratioP2;P2;SDS_P1;SDS_P2;PMS_P1;PMS_P2;Temp;Humidity;BMP_temperature;BMP_pressure;BME280_temperature;BME280_humidity;BME280_pressure;Samples;Min_cycle;Max_cycle;Signal;HPM_P1;HPM_P2
2022/06/11 00:01:43;;;;;;;6.32;2.58;;;17.70;99.90;;;;;;4937357;29;20066;-87
2022/06/11 00:04:14;;;;;;;3.70;1.77;;;17.70;99.90;;;;;;4937096;29;20038;-87
2022/06/11 00:06:45;;;;;;;5.85;1.80;;;17.60;99.90;;;;;;4934225;29;20279;-86
2022/06/11 00:09:11;;;;;;;4.43;1.52;;;17.60;99.90;;;;;;4935598;29;20028;-86
2022/06/11 00:11:38;;;;;;;3.80;1.92;;;17.60;99.90;;;;;;4933675;29;20015;-87
2022/06/11 00:14:04;;;;;;;5.55;2.55;;;17.70;99.90;;;;;;4934726;29;20043;-86
2022/06/11 00:16:30;;;;;;;4.82;1.92;;;17.60;99.90;;;;;;4934756;29;20051;-87
2022/06/11 00:18:57;;;;;;;4.25;1.85;;;17.60;99.90;;;;;;4936683;29;20015;-86
2022/06/11 00:21:26;;;;;;;5.22;1.83;;;17.60;99.90;;;;;;4936989;29;20047;-86
2022/06/11 00:23:52;;;;;;;3.85;1.98;;;17.60;99.90;;;;;;4937793;29;20015;-86
2022/06/11 00:26:19;;;;;;;3.75;1.70;;;17.60;99.90;;;;;;4934613;29;20095;-86
2022/06/11 00:28:45;;;;;;;6.25;2.13;;;17.50;99.90;;;;;;4933492;29;20083;-86
2022/06/11 00:31:11;;;;;;;6.40;1.70;;;17.50;99.90;;;;;;4936946;29;20212;-87
2022/06/11 00:33:37;;;;;;;6.68;1.83;;;17.50;99.90;;;;;;4936237;29;20031;-86
2022/06/11 00:36:08;;;;;;;4.93;1.83;;;17.50;99.90;;;;;;4950546;29;20217;-87
2022/06/11 00:38:35;;;;;;;4.72;2.30;;;17.50;99.90;;;;;;4930684;29;20228;-87
2022/06/11 00:41:01;;;;;;;4.18;1.80;;;17.50;99.90;;;;;;4935780;29;20152;-86
2022/06/11 00:43:28;;;;;;;6.13;2.13;;;17.50;99.90;;;;;;4951129;29;20019;-87
2022/06/11 00:45:57;;;;;;;3.72;1.75;;;17.50;99.90;;;;;;4937211;29;20079;-86
2022/06/11 00:48:39;;;;;;;5.00;2.67;;;17.50;99.90;;;;;;4936719;29;20103;-86
2022/06/11 00:51:14;;;;;;;7.35;2.25;;;17.50;99.90;;;;;;4934742;29;20027;-86
2022/06/11 00:53:54;;;;;;;4.68;1.90;;;17.50;99.90;;;;;;4932089;29;20246;-86
2022/06/11 00:56:30;;;;;;;6.93;2.17;;;17.40;99.90;;;;;;4933382;29;20027;-86
2022/06/11 00:59:01;;;;;;;4.22;2.42;;;17.30;99.90;;;;;;4935562;29;20036;-87
2022/06/11 01:01:28;;;;;;;4.25;2.05;;;17.40;99.90;;;;;;4934366;29;20052;-86
2022/06/11 01:03:58;;;;;;;5.47;2.33;;;17.40;99.90;;;;;;4934189;29;20027;-86
2022/06/11 01:06:29;;;;;;;4.82;1.83;;;17.30;99.90;;;;;;4935353;29;20297;-86
2022/06/11 01:09:07;;;;;;;6.70;2.00;;;17.40;99.90;;;;;;4933621;29;20046;-86
2022/06/11 01:11:39;;;;;;;4.45;2.53;;;17.30;99.90;;;;;;4935708;29;20093;-86
2022/06/11 01:14:16;;;;;;;5.32;2.13;;;17.20;99.90;;;;;;4933367;29;20035;-86
2022/06/11 01:16:53;;;;;;;2.92;1.92;;;17.20;99.90;;;;;;4935410;29;20209;-86
2022/06/11 01:19:39;;;;;;;4.00;1.90;;;17.30;99.90;;;;;;4934895;29;20027;-86
2022/06/11 01:22:27;;;;;;;4.88;2.28;;;17.30;99.90;;;;;;4944471;29;20263;-87
2022/06/11 01:25:22;;;;;;;6.20;2.28;;;17.20;99.90;;;;;;4936607;29;20126;-86
2022/06/11 01:28:15;;;;;;;5.97;2.35;;;17.20;99.90;;;;;;4946271;28;20036;-86
2022/06/11 01:30:51;;;;;;;4.63;1.92;;;17.30;99.90;;;;;;4934879;29;20083;-86
2022/06/11 01:33:22;;;;;;;6.05;2.60;;;17.30;99.90;;;;;;4935911;29;20059;-87
2022/06/11 01:36:08;;;;;;;3.38;1.88;;;17.40;99.90;;;;;;4950455;28;20055;-86
2022/06/11 01:38:42;;;;;;;5.70;2.20;;;17.40;99.90;;;;;;4935736;29;20055;-86
2022/06/11 01:41:21;;;;;;;5.28;2.10;;;17.30;99.90;;;;;;4934855;29;20027;-87
2022/06/11 01:43:49;;;;;;;4.18;1.85;;;17.30;99.90;;;;;;4936173;29;20043;-87
2022/06/11 01:46:28;;;;;;;4.15;1.90;;;17.30;99.90;;;;;;4952184;28;20334;-86
2022/06/11 01:49:17;;;;;;;3.58;1.90;;;17.30;99.90;;;;;;4932889;29;20026;-86
2022/06/11 01:52:01;;;;;;;7.40;2.13;;;17.30;99.90;;;;;;4932650;29;20033;-86
2022/06/11 01:54:45;;;;;;;3.83;2.03;;;17.30;99.90;;;;;;4933649;29;20027;-86
2022/06/11 01:57:41;;;;;;;6.93;2.28;;;17.30;99.90;;;;;;4934276;29;20028;-86
2022/06/11 02:00:21;;;;;;;3.55;1.90;;;17.30;99.90;;;;;;4934133;29;20099;-86
2022/06/11 02:02:58;;;;;;;5.65;2.00;;;17.30;99.90;;;;;;4933705;29;20058;-86
2022/06/11 02:05:46;;;;;;;3.92;1.90;;;17.30;99.90;;;;;;4932896;29;20026;-87
2022/06/11 02:08:20;;;;;;;4.18;2.00;;;17.30;99.90;;;;;;4949242;28;20222;-87
2022/06/11 02:11:01;;;;;;;3.80;2.13;;;17.30;99.90;;;;;;4933030;29;20031;-86
2022/06/11 02:13:41;;;;;;;4.15;2.28;;;17.20;99.90;;;;;;4931308;29;20015;-86
2022/06/11 02:16:06;;;;;;;3.55;2.30;;;17.20;99.90;;;;;;4934083;29;20034;-87
2022/06/11 02:18:34;;;;;;;5.38;2.13;;;17.20;99.90;;;;;;4933028;29;20024;-86
2022/06/11 02:21:11;;;;;;;4.60;2.10;;;17.20;99.90;;;;;;4933218;29;20481;-87
2022/06/11 02:23:57;;;;;;;3.05;2.00;;;17.20;99.90;;;;;;4934642;29;20264;-87
2022/06/11 02:26:27;;;;;;;5.63;2.45;;;17.20;99.90;;;;;;4935466;29;20030;-87
2022/06/11 02:28:56;;;;;;;4.40;2.13;;;17.20;99.90;;;;;;4931386;29;20308;-87
2022/06/11 02:31:27;;;;;;;6.43;2.20;;;17.20;99.90;;;;;;4932640;29;20015;-87
2022/06/11 02:33:53;;;;;;;6.40;2.28;;;17.10;99.90;;;;;;4932882;29;20048;-86
2022/06/11 02:36:24;;;;;;;4.97;2.40;;;17.10;99.90;;;;;;4933893;29;20054;-87
2022/06/11 02:38:51;;;;;;;3.08;2.42;;;17.10;99.90;;;;;;4932463;29;20051;-87
2022/06/11 02:41:30;;;;;;;5.75;2.33;;;17.10;99.90;;;;;;4933679;29;20412;-87
2022/06/11 02:43:56;;;;;;;6.78;2.70;;;17.10;99.90;;;;;;4932017;29;20019;-87
2022/06/11 02:46:41;;;;;;;6.95;2.53;;;17.10;99.90;;;;;;4934629;29;20038;-86
2022/06/11 02:49:08;;;;;;;5.55;2.58;;;17.10;99.90;;;;;;4933303;29;20020;-87
2022/06/11 02:51:35;;;;;;;5.28;2.72;;;17.00;99.90;;;;;;4933573;29;20032;-86
2022/06/11 02:54:01;;;;;;;3.33;2.60;;;17.00;99.90;;;;;;4933971;29;20043;-86
2022/06/11 02:56:27;;;;;;;5.80;2.83;;;16.90;99.90;;;;;;4933471;29;20272;-87
2022/06/11 02:58:53;;;;;;;5.38;2.40;;;17.00;99.90;;;;;;4933972;29;20051;-86
2022/06/11 03:01:20;;;;;;;6.13;2.85;;;16.90;99.90;;;;;;4932489;29;20022;-87
2022/06/11 03:03:49;;;;;;;6.20;2.60;;;17.00;99.90;;;;;;4932485;29;20043;-86
2022/06/11 03:06:16;;;;;;;3.58;2.65;;;17.00;99.90;;;;;;4931854;29;20023;-87
2022/06/11 03:08:41;;;;;;;5.40;2.88;;;16.90;99.90;;;;;;4934280;29;20020;-86
2022/06/11 03:11:07;;;;;;;3.40;2.67;;;16.90;99.90;;;;;;4934201;29;20031;-86
2022/06/11 03:13:33;;;;;;;7.03;2.90;;;16.90;99.90;;;;;;4948637;28;20320;-87
2022/06/11 03:15:59;;;;;;;7.20;3.28;;;16.90;99.90;;;;;;4932509;29;20355;-86
2022/06/11 03:18:26;;;;;;;8.02;3.28;;;16.90;99.90;;;;;;4932350;29;20086;-87
2022/06/11 03:20:52;;;;;;;7.60;2.83;;;16.90;99.90;;;;;;4949834;28;20052;-87
2022/06/11 03:23:19;;;;;;;7.20;3.35;;;16.90;99.90;;;;;;4934420;29;20075;-87
2022/06/11 03:25:45;;;;;;;6.22;3.17;;;16.80;99.90;;;;;;4931707;29;20099;-86
2022/06/11 03:28:14;;;;;;;4.47;3.03;;;16.80;99.90;;;;;;4951538;28;20055;-87
2022/06/11 03:30:40;;;;;;;6.75;2.80;;;16.80;99.90;;;;;;4932917;29;20035;-87
2022/06/11 03:33:06;;;;;;;7.63;3.60;;;16.80;99.90;;;;;;4932757;29;20056;-86
2022/06/11 03:35:33;;;;;;;4.72;2.78;;;16.70;99.90;;;;;;4930952;29;20043;-86
2022/06/11 03:38:00;;;;;;;5.20;3.42;;;16.70;99.90;;;;;;4931572;29;20100;-87
2022/06/11 03:40:26;;;;;;;8.05;3.78;;;16.60;99.90;;;;;;4931210;29;20042;-87
2022/06/11 03:42:52;;;;;;;5.22;3.25;;;16.60;99.90;;;;;;4934032;29;20011;-87
2022/06/11 03:45:18;;;;;;;7.63;3.72;;;16.60;99.90;;;;;;4933066;29;20071;-87
2022/06/11 03:47:45;;;;;;;4.80;3.15;;;16.60;99.90;;;;;;4932551;29;20486;-86
2022/06/11 03:50:19;;;;;;;6.32;3.25;;;16.60;99.90;;;;;;4933656;29;20023;-87
2022/06/11 03:52:45;;;;;;;4.00;3.10;;;16.50;99.90;;;;;;4931432;29;20027;-87
2022/06/11 03:55:11;;;;;;;4.57;3.25;;;16.50;99.90;;;;;;4933328;29;20107;-86
2022/06/11 03:57:37;;;;;;;7.70;3.55;;;16.50;99.90;;;;;;4933993;29;20035;-87
2022/06/11 04:00:09;;;;;;;6.28;3.85;;;16.50;99.90;;;;;;4931289;29;20056;-87
2022/06/11 04:02:35;;;;;;;6.22;3.60;;;16.50;99.90;;;;;;4930425;29;20034;-87
2022/06/11 04:05:01;;;;;;;7.40;3.50;;;16.50;99.90;;;;;;4932776;29;20073;-87
2022/06/11 04:07:27;;;;;;;4.85;3.70;;;16.50;99.90;;;;;;4932822;29;20024;-87
2022/06/11 04:09:53;;;;;;;5.18;3.33;;;16.50;99.90;;;;;;4934110;29;20063;-87
2022/06/11 04:12:18;;;;;;;8.38;3.72;;;16.40;99.90;;;;;;4932569;29;20312;-86
2022/06/11 04:14:47;;;;;;;6.50;3.58;;;16.40;99.90;;;;;;4930613;29;20027;-86
2022/06/11 04:17:22;;;;;;;5.72;4.13;;;16.50;99.90;;;;;;4932424;29;20024;-86
2022/06/11 04:19:50;;;;;;;7.90;3.97;;;16.40;99.90;;;;;;4932478;29;20016;-87
2022/06/11 04:22:17;;;;;;;7.60;4.20;;;16.40;99.90;;;;;;4931564;29;20051;-87
2022/06/11 04:24:43;;;;;;;9.15;3.90;;;16.40;99.90;;;;;;4932481;29;20039;-87
2022/06/11 04:27:11;;;;;;;6.18;3.83;;;16.40;99.90;;;;;;4933812;29;20024;-86
2022/06/11 04:29:42;;;;;;;5.57;3.95;;;16.40;99.90;;;;;;4947270;29;20019;-87
2022/06/11 04:32:10;;;;;;;5.80;3.85;;;16.40;99.90;;;;;;4935834;29;20040;-86
2022/06/11 04:34:36;;;;;;;8.43;4.30;;;16.40;99.90;;;;;;4936081;29;20315;-87
2022/06/11 04:37:03;;;;;;;5.28;4.07;;;16.40;99.90;;;;;;4936058;29;20407;-87
2022/06/11 04:39:31;;;;;;;6.63;4.03;;;16.50;99.90;;;;;;4934017;29;20212;-87
2022/06/11 04:41:58;;;;;;;10.10;4.55;;;16.50;99.90;;;;;;4934319;29;20307;-86
2022/06/11 04:44:24;;;;;;;6.70;4.00;;;16.50;99.90;;;;;;4935970;29;20042;-87
2022/06/11 04:46:50;;;;;;;8.77;4.55;;;16.50;99.90;;;;;;4936876;29;20037;-86
2022/06/11 04:49:16;;;;;;;7.03;4.40;;;16.50;99.90;;;;;;4936371;29;20036;-87
2022/06/11 04:51:43;;;;;;;6.75;3.88;;;16.50;99.90;;;;;;4934264;29;20016;-86
2022/06/11 04:54:09;;;;;;;6.90;3.67;;;16.50;99.90;;;;;;4934139;29;20331;-87
2022/06/11 04:56:35;;;;;;;11.75;4.88;;;16.50;99.90;;;;;;4936502;29;20034;-86
2022/06/11 04:59:01;;;;;;;6.03;3.50;;;16.60;99.90;;;;;;4937465;29;20024;-87
2022/06/11 05:01:27;;;;;;;5.65;4.07;;;16.60;99.90;;;;;;4936257;29;20020;-87
2022/06/11 05:03:53;;;;;;;7.30;3.97;;;16.60;99.90;;;;;;4934460;29;20008;-87
2022/06/11 05:06:22;;;;;;;5.93;3.95;;;16.60;99.90;;;;;;4935185;29;20035;-86
2022/06/11 05:08:48;;;;;;;6.43;3.83;;;16.60;99.90;;;;;;4936251;29;20351;-86
2022/06/11 05:11:14;;;;;;;8.13;4.18;;;16.60;99.90;;;;;;4935386;29;20027;-87
2022/06/11 05:13:40;;;;;;;6.93;3.75;;;16.70;99.90;;;;;;4932351;29;20051;-84
2022/06/11 05:16:06;;;;;;;5.15;3.60;;;16.70;99.90;;;;;;4935803;29;20027;-84
2022/06/11 05:18:33;;;;;;;5.32;3.47;;;16.70;99.90;;;;;;4932097;29;20135;-85
2022/06/11 05:20:59;;;;;;;8.25;4.07;;;16.80;99.90;;;;;;4928138;29;20350;-85
2022/06/11 05:23:24;;;;;;;5.95;3.50;;;16.80;99.90;;;;;;4927635;29;20637;-85
2022/06/11 05:25:50;;;;;;;6.78;3.33;;;16.80;99.90;;;;;;4924802;29;20027;-85
2022/06/11 05:28:27;;;;;;;5.00;3.40;;;16.80;99.90;;;;;;4941194;28;20485;-85
2022/06/11 05:30:54;;;;;;;7.32;3.30;;;16.90;99.90;;;;;;4923406;29;20028;-85
2022/06/11 05:33:21;;;;;;;4.25;3.33;;;16.90;99.90;;;;;;4921600;29;20087;-85
2022/06/11 05:35:48;;;;;;;6.03;3.42;;;16.90;99.90;;;;;;4921857;29;20077;-85
2022/06/11 05:38:26;;;;;;;6.35;3.33;;;16.90;99.90;;;;;;4922328;29;20393;-85
2022/06/11 05:40:53;;;;;;;7.68;3.63;;;17.00;99.90;;;;;;4923696;29;20425;-85
2022/06/11 05:43:20;;;;;;;8.32;2.97;;;17.00;99.90;;;;;;4924069;29;20020;-85
2022/06/11 05:46:07;;;;;;;6.20;2.88;;;17.00;99.90;;;;;;4923404;29;20032;-85
2022/06/11 05:48:37;;;;;;;7.80;3.03;;;17.10;99.90;;;;;;4923920;29;20020;-85
2022/06/11 05:51:04;;;;;;;11.80;3.10;;;17.10;99.90;;;;;;4923317;29;20408;-86
2022/06/11 05:53:34;;;;;;;6.70;3.42;;;17.10;99.90;;;;;;4923066;29;20497;-86
2022/06/11 05:56:02;;;;;;;7.15;3.85;;;17.20;99.90;;;;;;4922204;29;20055;-87
2022/06/11 05:58:36;;;;;;;7.20;3.20;;;17.10;99.90;;;;;;4921718;29;20028;-86
2022/06/11 06:01:03;;;;;;;;;;;17.10;99.90;;;;;;4924242;29;20450;-86
2022/06/11 06:03:28;;;;;;;5.65;3.38;;;17.10;99.90;;;;;;4923483;29;19914;-87
2022/06/11 06:05:54;;;;;;;6.47;3.63;;;17.20;99.90;;;;;;4920553;29;20164;-87
2022/06/11 06:08:20;;;;;;;6.60;3.58;;;17.20;99.90;;;;;;4921119;29;20016;-87
2022/06/11 06:10:46;;;;;;;6.47;3.38;;;17.20;99.90;;;;;;4922115;29;20582;-87
2022/06/11 06:15:56;;;;;;;7.75;3.15;;;17.30;99.90;;;;;;4919197;29;20120;-87
2022/06/11 06:18:22;;;;;;;5.25;3.25;;;17.40;99.90;;;;;;4921950;29;20127;-87
2022/06/11 06:20:49;;;;;;;10.15;4.22;;;17.40;99.90;;;;;;4923792;29;20020;-85
2022/06/11 06:23:15;;;;;;;10.77;3.03;;;17.50;99.90;;;;;;4924364;29;20035;-85
2022/06/11 06:25:40;;;;;;;5.47;3.30;;;17.50;99.90;;;;;;4941747;28;20516;-85
2022/06/11 06:28:07;;;;;;;4.70;2.88;;;17.60;99.90;;;;;;4923531;29;20031;-86
2022/06/11 06:30:33;;;;;;;5.35;3.10;;;17.70;99.90;;;;;;4922708;29;20027;-85
2022/06/11 06:32:58;;;;;;;4.57;2.88;;;17.70;99.90;;;;;;4922659;29;20062;-85
2022/06/11 06:35:24;;;;;;;5.07;2.33;;;17.80;99.90;;;;;;4921958;29;20028;-86
2022/06/11 06:37:50;;;;;;;4.68;2.60;;;17.90;99.90;;;;;;4938367;29;20026;-90
2022/06/11 06:40:16;;;;;;;7.55;2.50;;;17.90;99.90;;;;;;4922491;29;20035;-87
2022/06/11 06:42:42;;;;;;;5.30;2.35;;;18.00;99.90;;;;;;4919855;29;20027;-87
2022/06/11 06:45:08;;;;;;;3.67;2.20;;;18.00;99.90;;;;;;4919524;29;20440;-87
2022/06/11 06:47:34;;;;;;;7.65;2.17;;;18.20;99.90;;;;;;4921829;29;20043;-87
2022/06/11 06:49:59;;;;;;;5.15;2.45;;;18.20;99.90;;;;;;4922920;29;20082;-87
2022/06/11 06:52:25;;;;;;;5.47;2.42;;;18.20;99.90;;;;;;4923802;29;20027;-88
2022/06/11 06:54:51;;;;;;;3.72;2.20;;;18.30;99.90;;;;;;4921912;29;20032;-87
2022/06/11 06:57:17;;;;;;;4.72;1.90;;;18.40;99.90;;;;;;4922366;29;20023;-87
2022/06/11 06:59:43;;;;;;;2.75;1.90;;;18.50;99.90;;;;;;4921298;29;20066;-87
2022/06/11 07:02:13;;;;;;;5.63;1.92;;;18.60;99.90;;;;;;4920308;29;20036;-87
2022/06/11 07:04:39;;;;;;;3.45;2.05;;;18.60;99.90;;;;;;4920648;29;20521;-87
2022/06/11 07:07:05;;;;;;;3.65;2.08;;;18.60;99.90;;;;;;4921390;29;20024;-87
2022/06/11 07:09:31;;;;;;;4.97;2.38;;;18.60;99.90;;;;;;4919658;29;20410;-87
2022/06/11 07:11:57;;;;;;;4.45;2.00;;;18.70;99.90;;;;;;4938644;28;20157;-88
2022/06/11 07:14:23;;;;;;;6.90;2.67;;;18.90;99.90;;;;;;4919994;29;20496;-87
2022/06/11 07:16:55;;;;;;;4.90;2.20;;;19.00;99.90;;;;;;4939340;28;20021;-88
2022/06/11 07:19:32;;;;;;;3.15;1.88;;;18.90;99.90;;;;;;4924736;29;20115;-86
2022/06/11 07:22:05;;;;;;;6.20;2.05;;;19.00;99.90;;;;;;4923441;29;20020;-87
2022/06/11 07:24:33;;;;;;;5.13;1.92;;;19.10;99.90;;;;;;4920208;29;20071;-87
2022/06/11 07:27:05;;;;;;;5.20;1.98;;;19.20;99.90;;;;;;4920103;29;20050;-88
2022/06/11 07:29:36;;;;;;;6.95;1.90;;;19.30;99.90;;;;;;4918249;29;20083;-88
2022/06/11 07:32:06;;;;;;;3.70;1.80;;;19.30;99.90;;;;;;4923257;29;20564;-88
2022/06/11 07:34:34;;;;;;;4.32;2.20;;;19.50;99.90;;;;;;4921922;29;20532;-88
2022/06/11 07:37:00;;;;;;;5.75;2.67;;;19.50;99.90;;;;;;4920819;29;20075;-87
2022/06/11 07:39:26;;;;;;;9.07;2.28;;;19.60;99.90;;;;;;4921085;29;20051;-87
2022/06/11 07:41:52;;;;;;;3.47;2.00;;;19.60;99.90;;;;;;4921186;29;20493;-87
2022/06/11 07:44:17;;;;;;;3.72;2.08;;;19.70;99.90;;;;;;4921707;29;20016;-87
2022/06/11 07:46:43;;;;;;;8.95;2.60;;;19.80;99.90;;;;;;4923440;29;20484;-87
2022/06/11 07:49:09;;;;;;;8.43;2.33;;;19.80;99.90;;;;;;4924131;29;20038;-87
2022/06/11 07:51:35;;;;;;;6.85;1.98;;;19.90;99.90;;;;;;4923211;29;20031;-87
2022/06/11 07:54:01;;;;;;;3.53;2.25;;;19.90;99.90;;;;;;4919367;29;20040;-87
2022/06/11 07:56:26;;;;;;;3.05;1.80;;;19.90;99.90;;;;;;4921914;29;20039;-88
2022/06/11 07:58:55;;;;;;;5.80;2.05;;;20.00;99.90;;;;;;4921990;29;20023;-87
2022/06/11 08:01:21;;;;;;;5.40;2.20;;;20.10;99.90;;;;;;4918960;29;20032;-88
2022/06/11 08:03:46;;;;;;;4.47;1.75;;;20.20;99.90;;;;;;4922979;29;20559;-87
2022/06/11 08:06:12;;;;;;;4.65;2.10;;;20.30;99.90;;;;;;4924116;29;20027;-87
2022/06/11 08:08:38;;;;;;;3.20;1.88;;;20.40;99.90;;;;;;4925495;29;20020;-87
2022/06/11 08:11:05;;;;;;;4.55;2.05;;;20.50;99.90;;;;;;4922780;29;20020;-87
2022/06/11 08:13:31;;;;;;;3.50;1.70;;;20.70;99.90;;;;;;4925672;29;20024;-88
2022/06/11 08:15:59;;;;;;;3.97;1.95;;;20.70;99.90;;;;;;4940543;28;20063;-87
2022/06/11 08:18:26;;;;;;;3.70;1.95;;;20.80;99.90;;;;;;4927144;29;20019;-87
2022/06/11 08:20:52;;;;;;;4.40;2.20;;;20.90;99.90;;;;;;4923907;29;20053;-86
2022/06/11 08:23:18;;;;;;;3.13;2.28;;;21.00;99.90;;;;;;4926201;29;20504;-88
2022/06/11 08:25:44;;;;;;;5.13;1.63;;;21.00;99.90;;;;;;4927266;29;20027;-92
2022/06/11 08:28:12;;;;;;;6.47;2.10;;;21.10;99.90;;;;;;4926216;29;20437;-87
2022/06/11 08:30:40;;;;;;;5.70;2.22;;;21.20;99.90;;;;;;4924019;29;20489;-85
2022/06/11 08:33:05;;;;;;;2.63;1.52;;;21.30;99.90;;;;;;4923465;29;20130;-84
2022/06/11 08:35:33;;;;;;;6.43;2.25;;;21.40;99.90;;;;;;4924598;29;20118;-85
2022/06/11 08:37:59;;;;;;;5.60;2.03;;;21.50;99.90;;;;;;4925464;29;20115;-84
2022/06/11 08:40:35;;;;;;;5.68;2.00;;;21.50;99.90;;;;;;4925432;29;20035;-84
2022/06/11 08:43:22;;;;;;;5.20;1.85;;;21.60;99.90;;;;;;4923795;29;20485;-87
2022/06/11 08:46:03;;;;;;;5.68;2.10;;;21.80;99.90;;;;;;4922185;29;20083;-90
2022/06/11 08:48:37;;;;;;;5.90;2.28;;;21.90;99.90;;;;;;4923947;29;20024;-88
2022/06/11 08:51:11;;;;;;;3.50;1.90;;;22.00;99.90;;;;;;4926316;29;20032;-87
2022/06/11 08:53:38;;;;;;;;;;;22.00;99.90;;;;;;4923814;29;20268;-91
2022/06/11 08:56:11;;;;;;;2.38;1.25;;;22.10;99.90;;;;;;4941053;29;19906;-90
2022/06/11 08:59:01;;;;;;;3.60;1.33;;;22.20;99.90;;;;;;4922288;29;20039;-91
2022/06/11 09:01:59;;;;;;;5.63;2.20;;;22.40;99.90;;;;;;4923446;29;20039;-89
2022/06/11 09:04:43;;;;;;;5.55;1.98;;;22.50;99.90;;;;;;4925338;29;20048;-91
2022/06/11 09:07:33;;;;;;;4.45;1.55;;;22.40;99.90;;;;;;4942671;28;20055;-94
2022/06/11 09:10:16;;;;;;;9.95;1.67;;;22.40;99.90;;;;;;4934417;29;20024;-92
2022/06/11 09:12:50;;;;;;;4.63;1.50;;;22.50;99.90;;;;;;4948732;28;20547;-92
2022/06/11 09:15:45;;;;;;;10.98;1.90;;;22.50;99.90;;;;;;4923891;29;20497;-88
2022/06/11 09:18:28;;;;;;;4.53;1.58;;;22.60;99.90;;;;;;4889344;29;20037;-87
2022/06/11 09:21:12;;;;;;;17.73;2.67;;;22.70;99.90;;;;;;4925260;29;20027;-86
2022/06/11 09:23:56;;;;;;;8.95;2.00;;;22.80;99.90;;;;;;4925041;29;20075;-92
2022/06/11 09:27:00;;;;;;;7.05;1.75;;;22.80;99.90;;;;;;4924904;29;20112;-87
2022/06/11 09:29:36;;;;;;;9.38;2.22;;;22.90;99.90;;;;;;4924367;29;20024;-87
2022/06/11 09:32:11;;;;;;;8.82;2.13;;;23.00;99.90;;;;;;4922005;29;20048;-87
2022/06/11 09:34:52;;;;;;;14.90;1.70;;;23.10;99.90;;;;;;4937717;29;20067;-85
2022/06/11 09:37:27;;;;;;;6.38;1.67;;;23.10;99.90;;;;;;4919661;29;20497;-85
2022/06/11 09:40:11;;;;;;;11.70;2.35;;;23.30;99.90;;;;;;4922889;29;20020;-81
2022/06/11 09:43:01;;;;;;;7.57;1.67;;;23.50;99.90;;;;;;4922669;29;20048;-82
2022/06/11 09:45:43;;;;;;;4.20;1.42;;;23.60;99.90;;;;;;4925108;29;20043;-83
2022/06/11 09:48:37;;;;;;;4.32;1.52;;;23.60;99.90;;;;;;4924534;29;20478;-83
2022/06/11 09:51:11;;;;;;;5.57;1.83;;;23.60;99.90;;;;;;4924168;29;20025;-84
2022/06/11 09:53:43;;;;;;;4.65;1.20;;;23.80;99.90;;;;;;4923416;29;20417;-85
2022/06/11 09:56:23;;;;;;;8.85;1.55;;;23.90;99.90;;;;;;4923024;29;20167;-84
2022/06/11 09:59:27;;;;;;;4.65;1.10;;;23.80;99.90;;;;;;4921828;29;20043;-84
2022/06/11 10:02:02;;;;;;;4.55;1.40;;;23.80;99.90;;;;;;4923663;29;20020;-84
2022/06/11 10:04:33;;;;;;;5.70;1.45;;;23.90;99.90;;;;;;4924345;29;20016;-83
2022/06/11 10:07:05;;;;;;;6.28;1.10;;;23.90;99.90;;;;;;4922933;29;20032;-83
2022/06/11 10:09:48;;;;;;;7.35;1.77;;;23.90;99.90;;;;;;4923882;29;20023;-83
2022/06/11 10:12:23;;;;;;;3.47;1.30;;;23.90;99.90;;;;;;4923016;29;20024;-83
2022/06/11 10:14:52;;;;;;;2.85;1.20;;;23.90;99.90;;;;;;4922940;29;20610;-84
2022/06/11 10:17:35;;;;;;;5.57;1.40;;;24.00;99.90;;;;;;4923365;29;20051;-84
2022/06/11 10:20:18;;;;;;;8.32;2.00;;;24.10;99.90;;;;;;4923373;29;20039;-84
2022/06/11 10:22:56;;;;;;;6.25;2.20;;;24.10;99.90;;;;;;4919868;29;20026;-84
2022/06/11 10:25:36;;;;;;;4.95;1.60;;;24.20;99.90;;;;;;4924349;29;20016;-84
2022/06/11 10:28:10;;;;;;;4.43;1.55;;;24.30;99.90;;;;;;4922692;29;20032;-83
2022/06/11 10:30:46;;;;;;;5.20;1.60;;;24.30;99.90;;;;;;4921291;29;20024;-83
2022/06/11 10:33:21;;;;;;;3.72;1.40;;;24.30;99.90;;;;;;4940783;28;20048;-83
2022/06/11 10:35:59;;;;;;;10.88;2.30;;;24.40;99.90;;;;;;4937867;29;20517;-84
2022/06/11 10:38:40;;;;;;;7.28;1.30;;;24.50;99.90;;;;;;4922235;29;20020;-84
2022/06/11 10:41:20;;;;;;;4.55;1.42;;;24.60;99.90;;;;;;4937242;29;20087;-84
2022/06/11 10:44:11;;;;;;;4.65;1.60;;;24.70;99.90;;;;;;4923154;29;20020;-85
2022/06/11 10:46:38;;;;;;;2.30;1.50;;;24.70;99.90;;;;;;4923616;29;20060;-84
2022/06/11 10:49:13;;;;;;;6.13;1.95;;;24.70;99.90;;;;;;4923006;29;20030;-83
2022/06/11 10:51:40;;;;;;;7.60;5.30;;;24.80;99.90;;;;;;4923449;29;20047;-86
2022/06/11 10:54:23;;;;;;;4.43;2.20;;;24.80;99.90;;;;;;4922462;29;20157;-84
2022/06/11 10:56:50;;;;;;;5.72;1.80;;;24.80;99.90;;;;;;4940505;28;20030;-84
2022/06/11 10:59:30;;;;;;;3.47;1.50;;;24.60;99.90;;;;;;4923104;29;20153;-85
2022/06/11 11:02:16;;;;;;;7.03;1.40;;;24.50;99.90;;;;;;4919919;29;20389;-86
2022/06/11 11:04:56;;;;;;;3.20;1.27;;;24.60;99.90;;;;;;4922076;29;20072;-86
2022/06/11 11:07:24;;;;;;;4.57;1.10;;;24.50;99.90;;;;;;4920616;29;20564;-87
2022/06/11 11:09:55;;;;;;;3.38;1.20;;;24.50;99.90;;;;;;4922957;29;20028;-87
2022/06/11 11:12:34;;;;;;;4.28;1.10;;;24.40;99.90;;;;;;4920950;29;20067;-87
2022/06/11 11:15:24;;;;;;;4.28;1.13;;;24.40;99.90;;;;;;4922659;29;20036;-85
2022/06/11 11:17:59;;;;;;;5.03;1.35;;;24.40;99.90;;;;;;4923573;29;20039;-84
2022/06/11 11:20:39;;;;;;;2.15;1.10;;;24.40;99.90;;;;;;4921413;29;20036;-83
2022/06/11 11:23:05;;;;;;;4.25;1.38;;;24.50;99.90;;;;;;4921182;29;20032;-82
2022/06/11 11:25:47;;;;;;;3.85;1.23;;;24.50;99.90;;;;;;4933713;29;20385;-83
2022/06/11 11:28:31;;;;;;;5.38;1.45;;;24.70;99.90;;;;;;4921790;29;20115;-84
2022/06/11 11:30:57;;;;;;;;;;;24.60;99.90;;;;;;4922326;29;20036;-83
2022/06/11 11:33:35;;;;;;;2.97;1.23;;;24.70;99.90;;;;;;4922376;29;19926;-83
2022/06/11 11:36:23;;;;;;;3.45;1.30;;;24.80;99.90;;;;;;4921024;29;20469;-83
2022/06/11 11:39:12;;;;;;;2.20;1.20;;;25.00;99.90;;;;;;4921599;29;20082;-83
2022/06/11 11:41:57;;;;;;;4.68;1.25;;;25.20;99.90;;;;;;4916537;29;20035;-83
2022/06/11 11:44:23;;;;;;;7.18;1.48;;;25.30;99.90;;;;;;4921654;29;20401;-83
2022/06/11 11:46:55;;;;;;;3.03;1.00;;;25.30;99.90;;;;;;4920857;29;20030;-83
2022/06/11 11:49:27;;;;;;;2.63;1.30;;;25.40;99.90;;;;;;4921093;29;20044;-83
2022/06/11 11:51:55;;;;;;;4.45;1.45;;;25.40;99.90;;;;;;4921053;29;20474;-82
2022/06/11 11:54:27;;;;;;;3.83;1.50;;;25.40;99.90;;;;;;4922515;29;20406;-87
2022/06/11 11:56:59;;;;;;;5.03;1.02;;;25.30;99.90;;;;;;4921019;29;20089;-85
2022/06/11 11:59:36;;;;;;;3.60;1.10;;;25.20;99.90;;;;;;4920350;29;20020;-87
2022/06/11 12:02:19;;;;;;;6.32;1.27;;;25.20;99.90;;;;;;4934300;29;20119;-87
2022/06/11 12:05:11;;;;;;;4.85;1.10;;;25.40;99.90;;;;;;4922518;29;20493;-87
2022/06/11 12:07:40;;;;;;;4.35;1.38;;;25.40;99.90;;;;;;4917066;29;20039;-86
2022/06/11 12:10:25;;;;;;;4.28;1.33;;;25.40;99.90;;;;;;4920975;29;20087;-84
2022/06/11 12:12:53;;;;;;;6.68;1.33;;;25.50;99.90;;;;;;4919763;29;20062;-84
2022/06/11 12:15:27;;;;;;;3.78;1.05;;;25.60;99.90;;;;;;4921520;29;20102;-84
2022/06/11 12:18:00;;;;;;;4.15;1.02;;;25.60;99.90;;;;;;4920915;29;20024;-79
2022/06/11 12:20:41;;;;;;;4.60;1.13;;;25.70;99.90;;;;;;4921158;29;20489;-79
2022/06/11 12:23:27;;;;;;;5.13;1.00;;;25.70;99.90;;;;;;4922998;29;20488;-80
2022/06/11 12:26:03;;;;;;;3.75;1.00;;;25.80;99.90;;;;;;4922742;29;20028;-78
2022/06/11 12:28:56;;;;;;;7.20;1.33;;;25.90;99.90;;;;;;4918145;29;20035;-79
2022/06/11 12:31:21;;;;;;;3.60;1.05;;;25.80;99.90;;;;;;4921807;29;20032;-81
2022/06/11 12:33:48;;;;;;;5.03;1.20;;;25.70;99.90;;;;;;4921257;29;20028;-82
2022/06/11 12:36:41;;;;;;;6.38;1.27;;;25.80;99.90;;;;;;4921768;29;20477;-83
2022/06/11 12:39:45;;;;;;;2.38;1.00;;;26.10;99.90;;;;;;4922150;29;20481;-82
2022/06/11 12:42:36;;;;;;;5.97;1.30;;;26.10;99.90;;;;;;4920433;29;20031;-82
2022/06/11 12:45:18;;;;;;;3.03;1.20;;;26.20;99.90;;;;;;4920791;29;20034;-82
2022/06/11 12:48:15;;;;;;;4.32;1.23;;;26.20;99.90;;;;;;4921387;29;20397;-82
2022/06/11 12:50:53;;;;;;;4.88;1.38;;;26.20;99.90;;;;;;4922323;29;20110;-82
2022/06/11 12:53:58;;;;;;;4.20;1.20;;;26.40;99.90;;;;;;4923376;29;20055;-82
2022/06/11 12:56:41;;;;;;;3.92;0.90;;;26.70;99.90;;;;;;4924523;29;20512;-82
2022/06/11 12:59:21;;;;;;;3.65;0.88;;;27.00;99.90;;;;;;4923116;29;20082;-81
2022/06/11 13:01:55;;;;;;;5.68;1.60;;;26.70;99.90;;;;;;4923493;29;20024;-81
2022/06/11 13:04:27;;;;;;;4.20;1.10;;;26.80;99.90;;;;;;4924683;29;20024;-82
2022/06/11 13:07:18;;;;;;;7.00;1.40;;;26.80;99.90;;;;;;4924299;29;20090;-82
2022/06/11 13:10:10;;;;;;;4.57;1.13;;;26.90;99.90;;;;;;4924403;29;20401;-82
2022/06/11 13:12:49;;;;;;;3.78;0.93;;;27.30;99.90;;;;;;4924696;29;20080;-82
2022/06/11 13:16:05;;;;;;;3.50;1.05;;;27.00;99.90;;;;;;4921834;29;20035;-82
2022/06/11 13:18:51;;;;;;;3.25;0.95;;;27.00;99.90;;;;;;4884155;29;20028;-81
2022/06/11 13:21:39;;;;;;;4.72;1.10;;;27.30;99.90;;;;;;4921662;29;20032;-82